Time;durP1;ratioP1;P1;durP2;ratioP2;P2;SDS_P1;SDS_P2;PMS_P1;PMS_P2;Temp;Humidity;BMP_temperature;BMP_pressure;BME280_temperature;BME280_humidity;BME280_pressure;Samples;Min_cycle;Max_cycle;Signal;HPM_P1;HPM_P2
2022/01/12 04:02:10;;;;;;;3.60;2.97;;;2.00;73.80;;;;;;5310152;23;20492;-70
2022/01/12 04:04:53;;;;;;;3.63;2.57;;;1.90;74.20;;;;;;5012831;28;20845;-70
2022/01/12 04:10:04;;;;;;;3.13;2.20;;;2.00;74.00;;;;;;5013223;28;20408;-71
2022/01/12 04:12:31;;;;;;;3.33;2.37;;;2.00;73.60;;;;;;5012973;28;20518;-70
2022/01/12 04:17:26;;;;;;;3.33;2.50;;;2.00;73.40;;;;;;5036953;23;20997;-75
2022/01/12 04:19:52;;;;;;;3.70;2.57;;;1.90;73.70;;;;;;5016386;28;20793;-76
2022/01/12 04:25:00;;;;;;;3.37;2.63;;;1.80;73.90;;;;;;5015752;28;20447;-75
2022/01/12 04:27:26;;;;;;;3.30;2.47;;;1.80;73.90;;;;;;4996328;28;20456;-76
2022/01/12 04:29:53;;;;;;;3.80;2.73;;;1.90;73.60;;;;;;4996438;28;20547;-75
2022/01/12 04:32:21;;;;;;;3.13;2.27;;;1.90;73.60;;;;;;4996136;28;20940;-76
2022/01/12 04:34:49;;;;;;;3.37;2.50;;;1.80;73.80;;;;;;4996499;28;20460;-76
2022/01/12 04:37:15;;;;;;;3.50;2.57;;;1.80;74.10;;;;;;4996984;28;20558;-76
2022/01/12 04:39:42;;;;;;;3.40;2.90;;;1.70;74.00;;;;;;4996337;28;20453;-75
2022/01/12 04:42:09;;;;;;;3.90;3.00;;;1.70;74.10;;;;;;4996289;28;20457;-76
2022/01/12 04:44:40;;;;;;;3.00;2.07;;;1.80;73.60;;;;;;4995941;28;20936;-75
2022/01/12 04:47:15;;;;;;;3.60;2.63;;;1.70;74.00;;;;;;4996130;28;20472;-75
2022/01/12 04:49:48;;;;;;;3.53;2.70;;;1.70;74.00;;;;;;4996193;28;20527;-75
2022/01/12 04:52:16;;;;;;;3.90;2.50;;;1.70;73.60;;;;;;4995785;28;20993;-76
2022/01/12 04:54:43;;;;;;;3.50;2.87;;;1.70;74.00;;;;;;4995997;28;20503;-76
2022/01/12 04:57:10;;;;;;;3.70;2.53;;;1.70;74.00;;;;;;4996004;28;20472;-75
2022/01/12 04:59:45;;;;;;;3.70;2.93;;;1.70;73.60;;;;;;4995792;28;20480;-75
2022/01/12 05:06:24;;;;;;;3.77;2.87;;;1.60;74.10;;;;;;4995936;28;20515;-76
2022/01/12 05:07:58;;;;;;;3.57;3.13;;;1.50;74.50;;;;;;4996734;28;21037;-75
2022/01/12 05:13:08;;;;;;;3.60;2.93;;;1.60;74.10;;;;;;4996415;28;20420;-75
2022/01/12 05:15:36;;;;;;;4.53;3.60;;;1.70;73.70;;;;;;4995354;28;20539;-76
2022/01/12 05:18:03;;;;;;;3.97;3.37;;;1.70;73.60;;;;;;4995527;28;20441;-76
2022/01/12 05:20:30;;;;;;;3.60;2.90;;;1.70;73.70;;;;;;4995287;28;20455;-75
2022/01/12 05:22:58;;;;;;;3.80;2.83;;;1.60;74.00;;;;;;4995210;28;20531;-75
2022/01/12 05:25:24;;;;;;;3.40;2.40;;;1.50;74.50;;;;;;4995107;28;20465;-75
2022/01/12 05:27:53;;;;;;;3.70;2.70;;;1.50;74.40;;;;;;4994048;28;20499;-75
2022/01/12 05:30:20;;;;;;;3.90;3.07;;;1.50;74.20;;;;;;4995428;28;20442;-75
2022/01/12 05:32:47;;;;;;;3.63;2.97;;;1.50;74.00;;;;;;4995395;28;20453;-75
2022/01/12 05:35:16;;;;;;;4.03;3.20;;;1.40;74.60;;;;;;4994882;28;20956;-75
2022/01/12 05:37:44;;;;;;;4.97;3.20;;;1.50;74.30;;;;;;4996174;28;20452;-75
2022/01/12 05:40:14;;;;;;;4.13;3.10;;;1.50;73.90;;;;;;4996751;28;20528;-75
2022/01/12 05:42:40;;;;;;;3.77;3.13;;;1.50;73.70;;;;;;4997005;28;20516;-75
2022/01/12 05:45:09;;;;;;;3.70;2.77;;;1.40;73.90;;;;;;4996629;28;20480;-76
2022/01/12 05:49:34;;;;;;;3.50;2.63;;;1.40;74.10;;;;;;4996210;28;20448;-74
2022/01/12 05:50:29;;;;;;;3.80;3.20;;;1.50;73.70;;;;;;4994392;28;20442;-76
2022/01/12 05:52:56;;;;;;;4.40;3.17;;;1.40;74.10;;;;;;4995728;28;20797;-76
2022/01/12 05:55:24;;;;;;;4.47;2.93;;;1.30;74.10;;;;;;4994892;28;20832;-75
2022/01/12 05:57:51;;;;;;;3.40;2.70;;;1.30;74.30;;;;;;4994650;28;20920;-75
2022/01/12 06:00:20;;;;;;;4.17;3.20;;;1.30;74.20;;;;;;4995009;28;20436;-75
2022/01/12 06:02:46;;;;;;;4.07;3.23;;;1.30;74.30;;;;;;4994789;28;20511;-76
2022/01/12 06:05:14;;;;;;;3.57;2.93;;;1.30;74.20;;;;;;4994219;28;20504;-76
2022/01/12 06:07:42;;;;;;;3.70;2.83;;;1.20;74.70;;;;;;4994296;28;20952;-76
2022/01/12 06:10:09;;;;;;;4.30;3.43;;;1.30;74.80;;;;;;4994687;28;20579;-75
2022/01/12 06:12:38;;;;;;;3.50;2.77;;;1.30;74.70;;;;;;4994341;28;20449;-75
2022/01/12 06:15:06;;;;;;;3.60;3.00;;;1.30;75.00;;;;;;4994247;28;20445;-76
2022/01/12 06:17:33;;;;;;;4.10;3.30;;;1.30;74.90;;;;;;4994869;28;20619;-76
2022/01/12 06:20:00;;;;;;;3.80;3.10;;;1.40;74.70;;;;;;4994633;28;20495;-76
2022/01/12 06:22:26;;;;;;;3.97;3.20;;;1.50;74.60;;;;;;4994902;28;20453;-76
2022/01/12 06:24:56;;;;;;;4.33;3.27;;;1.50;74.40;;;;;;4995226;28;20449;-76
2022/01/12 06:27:27;;;;;;;4.00;3.40;;;1.50;74.20;;;;;;4994800;28;20928;-76
2022/01/12 06:30:04;;;;;;;4.30;3.80;;;1.40;74.50;;;;;;4994947;28;20941;-76
2022/01/12 06:32:33;;;;;;;3.70;3.30;;;1.40;74.70;;;;;;4996224;28;20433;-75
2022/01/12 06:35:00;;;;;;;4.60;3.20;;;1.40;74.60;;;;;;4994729;28;20449;-76
2022/01/12 06:37:26;;;;;;;4.40;3.70;;;1.30;74.80;;;;;;4994001;28;20484;-76
2022/01/12 06:39:53;;;;;;;3.70;3.10;;;1.30;74.90;;;;;;4993618;28;20569;-75
2022/01/12 06:42:20;;;;;;;4.03;3.10;;;1.30;74.70;;;;;;4994115;28;20461;-76
2022/01/12 06:44:48;;;;;;;4.00;3.30;;;1.30;74.70;;;;;;4993830;28;20504;-75
2022/01/12 06:47:16;;;;;;;4.10;3.00;;;1.40;74.60;;;;;;4993852;28;20556;-76
2022/01/12 06:49:42;;;;;;;4.13;3.57;;;1.40;74.30;;;;;;4993903;28;20502;-76
2022/01/12 06:52:09;;;;;;;4.60;3.37;;;1.40;74.40;;;;;;4993460;28;20500;-76
2022/01/12 06:54:36;;;;;;;4.80;3.90;;;1.30;74.60;;;;;;4993394;28;20503;-75
2022/01/12 06:57:03;;;;;;;5.00;3.80;;;1.30;75.00;;;;;;4993401;28;20794;-76
2022/01/12 06:59:30;;;;;;;4.60;3.50;;;1.30;75.10;;;;;;4993822;28;20445;-76
2022/01/12 07:01:56;;;;;;;4.53;3.90;;;1.30;74.90;;;;;;4993759;28;20450;-75
2022/01/12 07:04:25;;;;;;;4.23;3.80;;;1.40;74.50;;;;;;4993509;28;20830;-76
2022/01/12 07:06:52;;;;;;;4.80;3.50;;;1.40;74.50;;;;;;4993471;28;20942;-76
2022/01/12 07:09:18;;;;;;;4.27;3.43;;;1.40;74.50;;;;;;4993487;28;20584;-75
2022/01/12 07:11:45;;;;;;;5.00;3.90;;;1.30;74.90;;;;;;4993646;28;20445;-76
2022/01/12 07:14:12;;;;;;;4.00;3.40;;;1.30;75.00;;;;;;4993648;28;20441;-76
2022/01/12 07:16:38;;;;;;;4.50;3.90;;;1.40;74.80;;;;;;4993303;28;20484;-76
2022/01/12 07:19:05;;;;;;;3.97;3.40;;;1.40;74.70;;;;;;4993477;28;20507;-76
2022/01/12 07:21:33;;;;;;;3.97;3.10;;;1.40;74.50;;;;;;4993720;28;20811;-76
2022/01/12 07:24:00;;;;;;;8.70;3.47;;;1.40;74.40;;;;;;4993435;28;20448;-76
2022/01/12 07:26:27;;;;;;;4.00;3.30;;;1.30;75.20;;;;;;4993310;28;20473;-76
2022/01/12 07:28:56;;;;;;;4.07;3.50;;;1.20;75.80;;;;;;4993336;28;20508;-75
2022/01/12 07:31:22;;;;;;;3.83;3.20;;;1.20;76.00;;;;;;4993094;28;20547;-76
2022/01/12 07:33:50;;;;;;;4.17;3.43;;;1.10;76.40;;;;;;4993262;28;20449;-75
2022/01/12 07:36:17;;;;;;;4.17;3.27;;;1.10;77.10;;;;;;4993366;28;20461;-75
2022/01/12 07:38:46;;;;;;;4.53;3.90;;;1.00;77.20;;;;;;4993778;28;20449;-75
2022/01/12 07:41:12;;;;;;;4.10;3.10;;;1.00;77.10;;;;;;4994753;28;20457;-75
2022/01/12 07:43:39;;;;;;;5.10;2.67;;;1.20;77.20;;;;;;4994155;28;21015;-76
2022/01/12 07:46:06;;;;;;;4.73;3.80;;;1.00;76.50;;;;;;4993438;28;20872;-76
2022/01/12 07:48:32;;;;;;;3.60;2.50;;;1.20;77.70;;;;;;4993278;28;20461;-76
2022/01/12 07:50:59;;;;;;;3.90;3.30;;;1.40;76.70;;;;;;4994390;28;20484;-76
2022/01/12 07:53:26;;;;;;;4.07;3.30;;;1.70;75.30;;;;;;4997148;28;20449;-76
2022/01/12 07:55:54;;;;;;;5.70;3.13;;;1.80;73.90;;;;;;4997013;28;20765;-75
2022/01/12 07:58:20;;;;;;;3.80;3.30;;;1.60;73.90;;;;;;4997132;28;20460;-76
2022/01/12 08:00:47;;;;;;;4.20;3.53;;;1.40;74.80;;;;;;4996967;28;20507;-76
2022/01/12 08:03:15;;;;;;;4.17;3.70;;;1.30;74.80;;;;;;4997119;28;20514;-76
2022/01/12 08:05:43;;;;;;;4.20;3.70;;;1.30;75.70;;;;;;4996994;28;20472;-75
2022/01/12 08:08:11;;;;;;;4.17;3.20;;;1.40;76.20;;;;;;4996963;28;20457;-76
2022/01/12 08:10:38;;;;;;;4.10;3.23;;;1.60;75.50;;;;;;4996836;28;20485;-76
2022/01/12 08:13:06;;;;;;;4.33;3.60;;;1.80;75.20;;;;;;4996908;28;20453;-75
2022/01/12 08:15:33;;;;;;;4.93;3.70;;;2.10;74.70;;;;;;4996860;28;20480;-76
2022/01/12 08:18:00;;;;;;;4.90;3.13;;;2.40;73.70;;;;;;4997828;28;20847;-75
2022/01/12 08:20:28;;;;;;;3.60;2.97;;;2.60;73.20;;;;;;4996881;28;20527;-76
2022/01/12 08:22:55;;;;;;;3.77;2.97;;;2.80;72.30;;;;;;4996764;28;20526;-75
2022/01/12 08:25:22;;;;;;;4.53;3.67;;;3.00;70.90;;;;;;4996456;28;20940;-75
2022/01/12 08:27:49;;;;;;;3.53;2.60;;;3.00;70.90;;;;;;4997500;28;20503;-76
2022/01/12 08:30:21;;;;;;;3.80;3.00;;;2.60;72.00;;;;;;4996420;28;20489;-76
2022/01/12 08:32:51;;;;;;;3.60;3.10;;;2.80;72.60;;;;;;4996499;28;20433;-73
2022/01/12 08:35:19;;;;;;;4.10;3.10;;;2.90;71.10;;;;;;4996148;28;20510;-76
2022/01/12 08:37:46;;;;;;;4.40;3.93;;;3.00;71.00;;;;;;4996839;28;20480;-76
2022/01/12 08:40:15;;;;;;;3.50;2.73;;;3.10;71.70;;;;;;4996497;28;20446;-76
2022/01/12 08:42:42;;;;;;;4.40;3.40;;;2.80;69.90;;;;;;4996271;28;20476;-76
2022/01/12 08:45:11;;;;;;;3.53;2.97;;;2.90;71.40;;;;;;4996616;28;20453;-76
2022/01/12 08:47:39;;;;;;;3.97;3.13;;;2.50;71.80;;;;;;4996334;28;20515;-77
2022/01/12 08:50:07;;;;;;;3.53;2.90;;;2.40;72.30;;;;;;4996136;28;21078;-76
2022/01/12 08:52:35;;;;;;;3.70;3.00;;;2.60;72.30;;;;;;4996470;28;20453;-77
2022/01/12 08:55:01;;;;;;;4.27;3.63;;;2.70;71.20;;;;;;4996350;28;20516;-75
2022/01/12 08:57:29;;;;;;;4.00;2.90;;;2.60;71.90;;;;;;4996228;28;20878;-75
2022/01/12 08:59:56;;;;;;;3.47;2.90;;;2.80;71.00;;;;;;4996122;28;20452;-75
2022/01/12 09:02:23;;;;;;;3.80;3.17;;;2.60;70.90;;;;;;4995820;28;20449;-75
2022/01/12 09:04:51;;;;;;;3.50;2.63;;;2.70;71.80;;;;;;4997758;28;20516;-77
2022/01/12 09:07:18;;;;;;;3.90;3.10;;;2.90;70.00;;;;;;4995505;28;20473;-74
2022/01/12 09:09:44;;;;;;;4.43;3.33;;;2.60;71.00;;;;;;4995506;28;20485;-74
2022/01/12 09:12:12;;;;;;;3.80;2.90;;;2.90;72.00;;;;;;4996189;28;20999;-75
2022/01/12 09:14:38;;;;;;;3.90;3.13;;;3.10;70.40;;;;;;4997250;28;20527;-74
2022/01/12 09:17:13;;;;;;;4.33;3.53;;;2.90;70.80;;;;;;4997235;28;20477;-75
2022/01/12 09:19:40;;;;;;;3.37;2.80;;;2.60;70.80;;;;;;4997152;28;20429;-75
2022/01/12 09:22:08;;;;;;;3.90;3.10;;;2.80;70.90;;;;;;4997094;28;20448;-77
2022/01/12 09:24:35;;;;;;;3.87;2.93;;;2.60;71.00;;;;;;4999808;28;20531;-77
2022/01/12 09:27:02;;;;;;;4.10;3.20;;;2.70;71.80;;;;;;4998552;28;20473;-76
2022/01/12 09:29:28;;;;;;;4.60;4.00;;;2.60;70.50;;;;;;4995383;28;20441;-76
2022/01/12 09:31:55;;;;;;;4.57;3.40;;;2.30;71.90;;;;;;4996427;28;20449;-77
2022/01/12 09:34:22;;;;;;;4.87;3.63;;;2.30;72.50;;;;;;4995866;28;20453;-78
2022/01/12 09:36:48;;;;;;;3.90;3.30;;;2.50;72.70;;;;;;4995386;28;20527;-75
2022/01/12 09:39:16;;;;;;;3.80;2.77;;;2.40;71.50;;;;;;4995101;28;20453;-76
2022/01/12 09:41:43;;;;;;;4.53;3.20;;;2.40;72.20;;;;;;4995002;28;20449;-75
2022/01/12 09:44:11;;;;;;;3.70;2.97;;;2.40;71.90;;;;;;4994693;28;20940;-76
2022/01/12 09:46:38;;;;;;;3.70;2.87;;;2.30;72.60;;;;;;4994483;28;20571;-76
2022/01/12 09:49:06;;;;;;;3.37;2.50;;;2.40;72.00;;;;;;4994885;28;20453;-76
2022/01/12 09:51:33;;;;;;;4.00;3.07;;;2.40;73.10;;;;;;4994801;28;20491;-75
2022/01/12 09:54:00;;;;;;;3.87;3.47;;;2.40;71.80;;;;;;4994717;28;20457;-76
2022/01/12 09:56:30;;;;;;;3.80;3.00;;;1.70;72.90;;;;;;4994746;28;20469;-75
2022/01/12 09:58:58;;;;;;;3.90;2.83;;;1.70;74.10;;;;;;4994743;28;20801;-75
2022/01/12 10:01:31;;;;;;;3.23;2.23;;;1.60;74.50;;;;;;4994884;28;20615;-75
2022/01/12 10:04:08;;;;;;;3.80;3.30;;;1.80;74.90;;;;;;4994965;28;20433;-76
2022/01/12 10:06:37;;;;;;;3.90;3.03;;;1.70;74.00;;;;;;4995684;28;20500;-76
2022/01/12 10:09:03;;;;;;;4.10;3.07;;;1.50;74.10;;;;;;4994820;28;20508;-76
2022/01/12 10:11:32;;;;;;;3.80;2.60;;;1.40;74.60;;;;;;4995442;28;20856;-76
2022/01/12 10:14:01;;;;;;;3.60;2.70;;;1.50;74.80;;;;;;4995425;28;20790;-75
2022/01/12 10:16:29;;;;;;;3.53;2.70;;;1.90;74.30;;;;;;5027209;23;20503;-75
2022/01/12 10:18:58;;;;;;;3.80;2.70;;;2.10;74.00;;;;;;5014425;28;20444;-76
2022/01/12 10:21:29;;;;;;;3.57;2.60;;;2.30;72.20;;;;;;5014370;28;20539;-76
2022/01/12 10:23:58;;;;;;;3.87;2.97;;;2.80;71.40;;;;;;5014029;28;20448;-76
2022/01/12 10:26:39;;;;;;;3.77;3.00;;;3.40;70.00;;;;;;5014254;28;20854;-76
2022/01/12 10:29:09;;;;;;;3.70;2.83;;;3.60;69.40;;;;;;5014340;28;20428;-75
2022/01/12 10:31:51;;;;;;;3.63;2.67;;;3.50;67.70;;;;;;5013792;28;20484;-76
2022/01/12 10:34:20;;;;;;;3.53;2.60;;;3.80;68.10;;;;;;5014630;28;20433;-76
2022/01/12 10:36:48;;;;;;;3.27;2.37;;;4.20;65.70;;;;;;5013729;28;20984;-74
2022/01/12 10:39:17;;;;;;;3.70;2.63;;;4.40;66.00;;;;;;5014044;28;20502;-76
2022/01/12 10:41:59;;;;;;;3.90;2.63;;;4.30;65.30;;;;;;5014005;28;20448;-76
2022/01/12 10:44:28;;;;;;;3.30;2.30;;;3.90;66.30;;;;;;5014003;28;20429;-76
2022/01/12 10:47:10;;;;;;;3.30;2.53;;;3.80;66.50;;;;;;5014436;28;20472;-76
2022/01/12 10:49:37;;;;;;;4.00;3.33;;;3.70;67.80;;;;;;5014211;28;20436;-76
2022/01/12 10:52:08;;;;;;;3.63;2.83;;;3.20;68.60;;;;;;5013899;28;20456;-76
2022/01/12 10:54:46;;;;;;;3.87;3.30;;;2.90;69.80;;;;;;5013960;28;20527;-73
2022/01/12 10:57:23;;;;;;;3.50;2.80;;;3.10;69.40;;;;;;5013727;28;20480;-75
2022/01/12 11:00:07;;;;;;;3.53;3.20;;;3.10;69.50;;;;;;5013809;28;20494;-75
2022/01/12 11:02:35;;;;;;;3.60;3.00;;;3.00;69.70;;;;;;5013867;28;20437;-75
2022/01/12 11:05:03;;;;;;;4.00;3.40;;;3.20;70.50;;;;;;5013375;28;20998;-73
2022/01/12 11:07:30;;;;;;;3.40;2.80;;;3.80;69.90;;;;;;5013610;28;20896;-77
2022/01/12 11:09:59;;;;;;;3.20;2.13;;;4.40;67.50;;;;;;5014189;28;20518;-77
2022/01/12 11:12:29;;;;;;;3.40;2.50;;;5.30;64.10;;;;;;5013961;28;20448;-77
2022/01/12 11:14:56;;;;;;;3.43;2.57;;;6.40;61.80;;;;;;5014017;28;20451;-77
2022/01/12 11:17:25;;;;;;;3.73;3.13;;;6.40;59.50;;;;;;5014588;28;20480;-76
2022/01/12 11:20:01;;;;;;;4.00;2.87;;;5.80;61.50;;;;;;5013950;28;20432;-77
2022/01/12 11:22:38;;;;;;;3.70;2.97;;;5.50;62.70;;;;;;5014062;28;20896;-77
2022/01/12 11:25:17;;;;;;;3.90;3.20;;;5.30;62.40;;;;;;5015980;28;20531;-77
2022/01/12 11:27:47;;;;;;;4.13;3.53;;;4.80;63.60;;;;;;5017961;28;20500;-78
2022/01/12 11:30:22;;;;;;;3.50;3.10;;;4.70;64.60;;;;;;5017911;28;20517;-78
2022/01/12 11:32:57;;;;;;;3.73;3.17;;;4.30;65.90;;;;;;5018413;28;20482;-79
2022/01/12 11:35:28;;;;;;;3.83;3.00;;;4.10;67.70;;;;;;5018359;28;20431;-78
2022/01/12 11:37:59;;;;;;;4.10;2.97;;;4.30;66.60;;;;;;5017785;28;20444;-78
2022/01/12 11:40:34;;;;;;;4.50;3.67;;;4.10;66.10;;;;;;5017876;28;20443;-78
2022/01/12 11:43:02;;;;;;;4.67;3.00;;;4.10;67.00;;;;;;5017292;28;20486;-78
2022/01/12 11:45:29;;;;;;;4.20;3.27;;;3.70;67.40;;;;;;5017369;28;20452;-78
2022/01/12 11:47:55;;;;;;;4.10;3.13;;;3.50;69.00;;;;;;5017327;28;20476;-78
2022/01/12 11:50:22;;;;;;;4.27;3.47;;;3.40;68.70;;;;;;5017747;28;21009;-78
2022/01/12 11:52:49;;;;;;;3.70;2.60;;;3.20;69.90;;;;;;5018037;28;20456;-77
2022/01/12 11:55:18;;;;;;;3.87;3.40;;;3.30;70.20;;;;;;5017398;28;20502;-77
2022/01/12 11:57:49;;;;;;;4.57;3.30;;;3.30;69.40;;;;;;5017103;28;20467;-78
2022/01/12 12:00:19;;;;;;;3.90;3.23;;;3.60;69.20;;;;;;5017429;28;20436;-77
2022/01/12 12:02:48;;;;;;;3.73;3.33;;;3.80;69.10;;;;;;5018471;28;20455;-77
2022/01/12 12:05:17;;;;;;;3.90;3.50;;;4.00;68.40;;;;;;5017858;28;20451;-76
2022/01/12 12:07:46;;;;;;;5.00;3.60;;;3.80;68.20;;;;;;5017416;28;20483;-76
2022/01/12 12:10:14;;;;;;;4.40;3.83;;;4.10;69.00;;;;;;5017590;28;20478;-77
2022/01/12 12:12:41;;;;;;;3.90;2.97;;;4.60;67.20;;;;;;5016825;28;20452;-76
2022/01/12 12:15:11;;;;;;;4.40;3.30;;;5.20;65.80;;;;;;5016858;28;20977;-77
2022/01/12 12:17:40;;;;;;;3.90;3.10;;;5.50;64.10;;;;;;5017270;28;20991;-76
2022/01/12 12:20:10;;;;;;;4.30;3.73;;;5.90;62.50;;;;;;5017580;28;20506;-77
2022/01/12 12:22:40;;;;;;;3.57;2.80;;;6.20;62.00;;;;;;5018050;28;20456;-76
2022/01/12 12:25:11;;;;;;;3.57;2.70;;;7.70;58.20;;;;;;5018379;28;20529;-78
2022/01/12 12:27:40;;;;;;;3.37;2.80;;;10.00;55.50;;;;;;5017893;28;20484;-77
2022/01/12 12:30:10;;;;;;;4.23;3.27;;;12.40;48.80;;;;;;5018317;28;20455;-78
2022/01/12 12:32:40;;;;;;;3.67;2.93;;;13.90;45.70;;;;;;5017929;28;20448;-76
2022/01/12 12:35:09;;;;;;;3.50;2.70;;;15.40;43.30;;;;;;5018387;28;20460;-76
2022/01/12 12:37:38;;;;;;;3.47;2.80;;;16.50;41.70;;;;;;5017275;28;20475;-76
2022/01/12 12:40:24;;;;;;;3.50;3.10;;;18.80;38.20;;;;;;5017545;28;20451;-76
2022/01/12 12:43:00;;;;;;;3.30;2.60;;;18.60;35.70;;;;;;5017390;28;20455;-77
2022/01/12 12:45:39;;;;;;;3.30;2.30;;;18.60;36.70;;;;;;5018494;28;20452;-77
2022/01/12 12:48:10;;;;;;;3.40;2.57;;;19.70;34.40;;;;;;5016691;28;20863;-77
2022/01/12 12:50:37;;;;;;;3.60;2.93;;;20.40;34.50;;;;;;5017287;28;20991;-76
2022/01/12 12:53:04;;;;;;;5.00;2.53;;;21.60;32.40;;;;;;5017922;28;20455;-77
2022/01/12 12:55:35;;;;;;;3.13;2.43;;;21.30;32.90;;;;;;5017059;28;20448;-77
2022/01/12 12:58:02;;;;;;;3.37;2.53;;;21.50;32.30;;;;;;5016690;28;20912;-77
2022/01/12 13:00:29;;;;;;;3.40;2.43;;;22.70;31.40;;;;;;5016798;28;20943;-77
2022/01/12 13:02:58;;;;;;;3.67;2.73;;;24.10;30.80;;;;;;5019373;28;20444;-77
2022/01/12 13:05:28;;;;;;;3.60;2.60;;;25.50;29.00;;;;;;5017909;28;20453;-78
2022/01/12 13:07:55;;;;;;;3.67;2.37;;;26.60;28.00;;;;;;5018204;28;20824;-78
2022/01/12 13:10:24;;;;;;;4.10;2.80;;;27.20;27.40;;;;;;5018285;28;20452;-78
2022/01/12 13:12:52;;;;;;;3.47;3.10;;;28.40;26.50;;;;;;5017996;28;20455;-77
2022/01/12 13:15:22;;;;;;;3.27;2.60;;;28.80;24.70;;;;;;5017556;28;20452;-78
2022/01/12 13:17:57;;;;;;;3.37;2.53;;;27.20;25.80;;;;;;5018321;28;20476;-77
2022/01/12 13:23:15;;;;;;;3.50;2.60;;;25.40;27.00;;;;;;5016365;28;20411;-77
2022/01/12 13:25:42;;;;;;;3.33;2.60;;;25.30;28.00;;;;;;5016308;28;20456;-76
2022/01/12 13:28:09;;;;;;;3.80;3.20;;;25.70;27.80;;;;;;5016810;28;20455;-77
2022/01/12 13:30:47;;;;;;;3.60;2.90;;;24.70;27.30;;;;;;5019345;28;20961;-77
2022/01/12 13:33:14;;;;;;;3.70;2.33;;;24.40;28.50;;;;;;5018207;28;20448;-77
2022/01/12 13:35:43;;;;;;;3.37;2.90;;;24.90;28.70;;;;;;5016900;28;20454;-77
2022/01/12 13:38:10;;;;;;;3.70;2.93;;;25.20;27.40;;;;;;5018043;28;20821;-77
2022/01/12 13:40:39;;;;;;;3.83;2.93;;;25.80;27.70;;;;;;5017579;28;20459;-77
2022/01/12 13:43:06;;;;;;;3.40;2.40;;;25.90;27.30;;;;;;5016676;28;20827;-77
2022/01/12 13:45:40;;;;;;;3.80;2.80;;;26.40;27.30;;;;;;5017697;28;20456;-77
2022/01/12 13:48:13;;;;;;;3.33;2.70;;;27.00;26.50;;;;;;5017589;28;20441;-77
2022/01/12 13:50:44;;;;;;;3.30;2.60;;;26.00;27.00;;;;;;5020119;28;20535;-77
2022/01/12 13:53:11;;;;;;;3.83;3.10;;;26.30;26.70;;;;;;5019216;28;20439;-78
2022/01/12 13:55:50;;;;;;;4.27;3.17;;;26.20;26.80;;;;;;5016225;28;20537;-76
2022/01/12 13:58:17;;;;;;;3.33;2.40;;;25.80;27.30;;;;;;5016809;28;20432;-77
2022/01/12 14:00:44;;;;;;;3.60;2.40;;;26.10;27.20;;;;;;5017209;28;20452;-77
2022/01/12 14:03:18;;;;;;;3.57;2.70;;;26.50;26.90;;;;;;5016854;28;20462;-76
2022/01/12 14:05:46;;;;;;;3.87;2.70;;;26.10;27.00;;;;;;5018373;28;20459;-78
2022/01/12 14:08:15;;;;;;;3.40;2.40;;;25.90;27.00;;;;;;5018918;28;20879;-78
2022/01/12 14:10:43;;;;;;;3.60;2.80;;;26.20;27.10;;;;;;5017057;28;20924;-76
2022/01/12 14:13:11;;;;;;;3.33;2.60;;;26.40;26.70;;;;;;5015182;28;20480;-78
2022/01/12 14:15:38;;;;;;;3.67;2.77;;;25.90;26.70;;;;;;5014421;28;20458;-77
2022/01/12 14:18:06;;;;;;;3.73;2.93;;;24.80;27.20;;;;;;5014450;28;20930;-77
2022/01/12 14:20:38;;;;;;;3.50;2.50;;;23.00;28.90;;;;;;5014768;28;20518;-77
2022/01/12 14:23:07;;;;;;;3.53;2.73;;;22.80;29.80;;;;;;5015114;28;20804;-78
2022/01/12 14:25:39;;;;;;;3.50;2.87;;;22.50;29.90;;;;;;5014291;28;20804;-77
2022/01/12 14:28:06;;;;;;;4.23;2.97;;;21.50;30.90;;;;;;5015109;28;20527;-77
2022/01/12 14:30:33;;;;;;;3.90;2.73;;;19.90;32.50;;;;;;5014516;28;20440;-77
2022/01/12 14:33:00;;;;;;;3.70;2.80;;;18.40;34.50;;;;;;5014374;28;20479;-77
2022/01/12 14:35:27;;;;;;;5.23;2.93;;;17.70;35.80;;;;;;5014150;28;20445;-77
2022/01/12 14:37:56;;;;;;;4.03;3.53;;;17.40;36.30;;;;;;5014110;28;20455;-77
2022/01/12 14:40:25;;;;;;;3.80;3.40;;;15.60;38.50;;;;;;5014103;28;20479;-76
2022/01/12 14:42:55;;;;;;;4.20;3.13;;;14.50;40.40;;;;;;5014200;28;20440;-77
2022/01/12 14:45:25;;;;;;;4.10;3.40;;;12.60;43.50;;;;;;5013862;28;20815;-77
2022/01/12 14:47:52;;;;;;;3.57;2.93;;;11.80;45.00;;;;;;5014217;28;20477;-77
2022/01/12 14:50:19;;;;;;;3.77;3.10;;;11.40;45.80;;;;;;5013938;28;20484;-76
2022/01/12 14:52:46;;;;;;;3.67;2.87;;;10.90;46.80;;;;;;5013998;28;20488;-76
2022/01/12 14:55:13;;;;;;;3.77;3.00;;;10.20;48.30;;;;;;5013824;28;20444;-77
2022/01/12 14:57:41;;;;;;;4.37;3.60;;;9.60;49.50;;;;;;5013456;28;20874;-77
2022/01/12 15:00:15;;;;;;;4.33;3.80;;;8.50;51.90;;;;;;5013547;28;20510;-76
2022/01/12 15:02:42;;;;;;;4.20;3.10;;;8.10;53.40;;;;;;5013839;28;20428;-77
2022/01/12 15:05:09;;;;;;;4.33;3.07;;;7.80;53.90;;;;;;5013535;28;20928;-76
2022/01/12 15:07:35;;;;;;;4.00;3.37;;;7.50;55.10;;;;;;5013585;28;20468;-76
2022/01/12 15:10:05;;;;;;;4.53;3.63;;;7.30;55.80;;;;;;5013851;28;20448;-77
2022/01/12 15:12:36;;;;;;;3.80;3.13;;;7.10;56.40;;;;;;5013690;28;20487;-76
2022/01/12 15:15:07;;;;;;;4.43;3.37;;;6.90;57.20;;;;;;5013792;28;20527;-76
2022/01/12 15:17:35;;;;;;;3.77;3.30;;;6.70;57.80;;;;;;5013361;28;20575;-76
2022/01/12 15:20:07;;;;;;;3.93;3.13;;;6.70;58.10;;;;;;5013573;28;20464;-77
2022/01/12 15:22:35;;;;;;;4.53;3.60;;;6.70;58.40;;;;;;5013754;28;20445;-76
2022/01/12 15:25:01;;;;;;;4.30;3.60;;;6.50;58.80;;;;;;5013634;28;20452;-77
2022/01/12 15:27:28;;;;;;;4.00;3.30;;;6.50;59.00;;;;;;5013113;28;21036;-77
2022/01/12 15:29:56;;;;;;;3.73;3.27;;;6.40;59.10;;;;;;5013202;28;20456;-77
2022/01/12 15:32:25;;;;;;;3.50;2.60;;;6.40;59.40;;;;;;5013425;28;20526;-76
2022/01/12 15:34:52;;;;;;;4.30;3.57;;;6.30;59.80;;;;;;5013517;28;20502;-77
2022/01/12 15:37:18;;;;;;;3.60;3.00;;;6.20;60.30;;;;;;5013342;28;20467;-76
2022/01/12 15:39:45;;;;;;;4.10;3.43;;;6.10;60.40;;;;;;5013385;28;20494;-77
2022/01/12 15:42:12;;;;;;;4.23;3.37;;;6.00;60.60;;;;;;5013542;28;20440;-76
2022/01/12 15:44:38;;;;;;;5.03;3.20;;;6.00;60.80;;;;;;5013452;28;20510;-76
2022/01/12 15:47:06;;;;;;;3.23;2.87;;;5.90;60.80;;;;;;5012937;28;20897;-77
2022/01/12 15:49:34;;;;;;;3.97;3.00;;;5.90;60.90;;;;;;5013333;28;20535;-77
2022/01/12 15:52:02;;;;;;;4.10;3.30;;;5.80;61.30;;;;;;5013264;28;20530;-77
2022/01/12 15:54:29;;;;;;;4.23;3.43;;;5.70;61.50;;;;;;5013390;28;20452;-77
2022/01/12 15:56:57;;;;;;;4.10;3.20;;;5.70;61.40;;;;;;5013365;28;20473;-76
2022/01/12 15:59:24;;;;;;;4.30;3.40;;;5.60;61.60;;;;;;5013184;28;20453;-77
2022/01/12 16:01:51;;;;;;;3.73;3.30;;;5.50;62.00;;;;;;5013157;28;20447;-75
2022/01/12 16:04:19;;;;;;;4.60;2.97;;;5.50;62.10;;;;;;5013111;28;20448;-78
2022/01/12 16:06:47;;;;;;;3.50;2.80;;;5.40;62.60;;;;;;5012729;28;20964;-77
2022/01/12 16:09:14;;;;;;;4.37;3.97;;;5.30;62.90;;;;;;5013131;28;20448;-77
2022/01/12 16:11:41;;;;;;;4.23;3.37;;;5.30;63.00;;;;;;5013692;28;20471;-77
2022/01/12 16:14:08;;;;;;;4.50;2.87;;;5.20;63.50;;;;;;5016864;28;20452;-76
2022/01/12 16:16:36;;;;;;;3.90;3.40;;;5.20;63.70;;;;;;5040599;23;20538;-70
2022/01/12 16:19:05;;;;;;;4.00;3.10;;;5.20;64.00;;;;;;5016708;28;20451;-70
2022/01/12 16:21:32;;;;;;;4.37;3.53;;;5.10;64.20;;;;;;5016720;28;20795;-70
2022/01/12 16:24:00;;;;;;;4.03;3.20;;;5.10;64.70;;;;;;5016340;28;20867;-70
2022/01/12 16:26:27;;;;;;;4.03;3.33;;;5.10;64.80;;;;;;5016278;28;20512;-71
2022/01/12 16:28:55;;;;;;;4.60;3.23;;;5.00;65.00;;;;;;5016474;28;20502;-70
2022/01/12 16:31:23;;;;;;;4.07;3.50;;;5.00;65.20;;;;;;5016411;28;20535;-70
2022/01/12 16:33:50;;;;;;;4.97;3.73;;;5.00;65.20;;;;;;5016418;28;20448;-70
2022/01/12 16:36:18;;;;;;;5.87;4.40;;;4.90;65.40;;;;;;5016328;28;20468;-70
2022/01/12 16:38:45;;;;;;;4.37;2.80;;;4.90;65.40;;;;;;5016337;28;20470;-70
2022/01/12 16:41:13;;;;;;;4.13;3.70;;;4.80;65.80;;;;;;5016268;28;20475;-70
2022/01/12 16:43:41;;;;;;;4.40;3.47;;;4.70;66.10;;;;;;5016493;28;20460;-70
2022/01/12 16:46:10;;;;;;;4.70;3.43;;;4.70;66.20;;;;;;5016089;28;20506;-70
2022/01/12 16:48:37;;;;;;;4.20;3.43;;;4.70;66.20;;;;;;5016093;28;20444;-70
2022/01/12 16:51:04;;;;;;;4.47;3.70;;;4.70;66.30;;;;;;5016134;28;20444;-70
2022/01/12 16:53:30;;;;;;;4.20;3.73;;;4.60;66.40;;;;;;5015602;28;21065;-71
2022/01/12 16:55:57;;;;;;;4.73;4.00;;;4.60;66.90;;;;;;5015955;28;20873;-70
2022/01/12 16:58:26;;;;;;;4.00;3.10;;;4.50;67.10;;;;;;5015642;28;20444;-70
2022/01/12 17:00:52;;;;;;;3.90;3.50;;;4.50;67.30;;;;;;5015551;28;21002;-69
2022/01/12 17:03:19;;;;;;;5.07;4.10;;;4.50;67.30;;;;;;5015538;28;20994;-71
2022/01/12 17:05:46;;;;;;;5.00;4.47;;;4.50;67.20;;;;;;5015601;28;20978;-70
2022/01/12 17:08:13;;;;;;;4.50;4.00;;;4.50;67.30;;;;;;5015668;28;20468;-70
2022/01/12 17:10:40;;;;;;;5.43;4.93;;;4.40;67.50;;;;;;5015748;28;20448;-70
2022/01/12 17:13:06;;;;;;;5.10;4.60;;;4.40;67.40;;;;;;5015344;28;21060;-70
2022/01/12 17:16:18;;;;;;;5.40;3.87;;;4.30;67.60;;;;;;5015641;28;20444;-70
2022/01/12 17:18:54;;;;;;;5.70;4.60;;;4.30;67.70;;;;;;5015616;28;20439;-70
2022/01/12 17:21:22;;;;;;;5.70;5.13;;;4.30;67.70;;;;;;5015290;28;20436;-70